Time;durP1;ratioP1;P1;durP2;ratioP2;P2;SDS_P1;SDS_P2;PMS_P1;PMS_P2;Temp;Humidity;BMP_temperature;BMP_pressure;BME280_temperature;BME280_humidity;BME280_pressure;Samples;Min_cycle;Max_cycle;Signal;HPM_P1;HPM_P2
2021/09/15 00:03:40;;;;;;;7.47;1.80;;;19.20;99.90;;;;;;6238364;23;20239;-90
2021/09/15 00:08:47;;;;;;;4.20;1.67;;;19.30;99.90;;;;;;6230330;23;20195;-91
2021/09/15 00:11:22;;;;;;;2.47;1.50;;;19.30;99.90;;;;;;6237906;23;20241;-92
2021/09/15 00:13:53;;;;;;;2.20;1.27;;;19.20;99.90;;;;;;6220809;23;20183;-92
2021/09/15 00:16:24;;;;;;;6.77;1.70;;;19.20;99.90;;;;;;6219386;23;20184;-92
2021/09/15 00:18:56;;;;;;;4.63;2.10;;;19.20;99.90;;;;;;6218900;23;20262;-92
2021/09/15 00:21:28;;;;;;;4.87;1.80;;;19.20;99.90;;;;;;6196573;23;20192;-91
2021/09/15 00:23:59;;;;;;;2.70;1.70;;;19.20;99.90;;;;;;6219843;23;20212;-91
2021/09/15 00:26:33;;;;;;;1.63;1.37;;;19.10;99.90;;;;;;6233003;23;20184;-91
2021/09/15 00:29:06;;;;;;;3.80;1.57;;;19.10;99.90;;;;;;6216383;23;20164;-90
2021/09/15 00:31:38;;;;;;;2.93;1.50;;;19.10;99.90;;;;;;6240001;23;20157;-91
2021/09/15 00:34:09;;;;;;;3.30;1.40;;;19.10;99.90;;;;;;6238728;23;20191;-91
2021/09/15 00:39:10;;;;;;;4.47;1.50;;;19.10;99.90;;;;;;6230966;23;20204;-91
2021/09/15 00:41:46;;;;;;;2.57;1.27;;;19.00;99.90;;;;;;6233616;23;20187;-92
2021/09/15 00:44:17;;;;;;;4.10;1.20;;;18.90;99.90;;;;;;6230573;22;20241;-90
2021/09/15 00:49:57;;;;;;;2.63;1.20;;;18.80;99.90;;;;;;6199836;23;20176;-90
2021/09/15 00:52:30;;;;;;;2.30;1.40;;;18.80;99.90;;;;;;6183255;23;20165;-92
2021/09/15 00:55:02;;;;;;;1.60;1.23;;;18.80;99.90;;;;;;6232045;23;20176;-92
2021/09/15 00:57:35;;;;;;;2.33;1.33;;;18.60;99.90;;;;;;6231416;23;20197;-92
2021/09/15 01:00:11;;;;;;;4.23;1.50;;;18.70;99.90;;;;;;6237625;23;20156;-92
2021/09/15 01:02:43;;;;;;;2.20;1.40;;;18.70;99.90;;;;;;6179114;23;20270;-90
2021/09/15 01:05:14;;;;;;;3.10;1.40;;;18.70;99.90;;;;;;6220432;23;20180;-89
2021/09/15 01:07:46;;;;;;;4.23;1.70;;;18.70;99.90;;;;;;6231517;23;20180;-90
2021/09/15 01:10:18;;;;;;;4.20;1.83;;;18.70;99.90;;;;;;6194360;23;20196;-91
2021/09/15 01:12:52;;;;;;;2.57;1.30;;;18.60;99.90;;;;;;6192986;23;20192;-89
2021/09/15 01:15:25;;;;;;;2.17;1.73;;;18.60;99.90;;;;;;6222050;23;20179;-90
2021/09/15 01:18:01;;;;;;;3.00;1.20;;;18.60;99.90;;;;;;6225491;23;20204;-91
2021/09/15 01:20:31;;;;;;;3.83;1.43;;;18.50;99.90;;;;;;6232019;23;20623;-91
2021/09/15 01:23:06;;;;;;;1.90;1.57;;;18.60;99.90;;;;;;6225523;23;20176;-91
2021/09/15 01:25:37;;;;;;;1.87;1.43;;;18.60;99.90;;;;;;6229184;23;20183;-91
2021/09/15 01:28:08;;;;;;;1.57;1.47;;;18.50;99.90;;;;;;6216964;23;20560;-91
2021/09/15 01:30:42;;;;;;;2.90;1.70;;;18.50;99.90;;;;;;6217940;23;20169;-90
2021/09/15 01:33:13;;;;;;;2.10;1.30;;;18.50;99.90;;;;;;6218583;23;20251;-92
2021/09/15 01:35:45;;;;;;;2.07;1.20;;;18.60;99.90;;;;;;6224583;23;20176;-94
2021/09/15 01:38:19;;;;;;;1.67;1.40;;;18.50;99.90;;;;;;6220426;23;20224;-91
2021/09/15 01:40:52;;;;;;;3.17;1.40;;;18.50;99.90;;;;;;6232301;23;20180;-91
2021/09/15 01:43:24;;;;;;;3.67;1.27;;;18.50;99.90;;;;;;6232869;23;20188;-91
2021/09/15 01:45:56;;;;;;;4.07;1.53;;;18.50;99.90;;;;;;6232998;23;20165;-91
2021/09/15 01:48:28;;;;;;;3.30;1.43;;;18.40;99.90;;;;;;6234848;23;20172;-90
2021/09/15 01:51:00;;;;;;;1.83;1.57;;;18.40;99.90;;;;;;6210121;23;20184;-92
2021/09/15 01:53:37;;;;;;;6.60;1.60;;;18.30;99.90;;;;;;6235716;23;20176;-91
2021/09/15 01:56:08;;;;;;;2.50;1.37;;;18.30;99.90;;;;;;6233329;23;20187;-95
2021/09/15 01:58:39;;;;;;;1.90;1.30;;;18.20;99.90;;;;;;6233747;23;20207;-90
2021/09/15 02:01:10;;;;;;;3.87;1.33;;;18.20;99.90;;;;;;6234339;23;20215;-94
2021/09/15 02:03:42;;;;;;;3.47;1.33;;;18.20;99.90;;;;;;6230651;23;20244;-94
2021/09/15 02:06:14;;;;;;;2.40;1.57;;;18.20;99.90;;;;;;6233261;23;20192;-94
2021/09/15 02:08:46;;;;;;;2.93;1.60;;;18.10;99.90;;;;;;6234397;23;20169;-93
2021/09/15 02:11:17;;;;;;;2.53;1.40;;;18.10;99.90;;;;;;6227224;23;20168;-94
2021/09/15 02:13:49;;;;;;;3.83;1.70;;;18.10;99.90;;;;;;6233732;23;20169;-93
2021/09/15 02:16:21;;;;;;;5.90;1.50;;;18.10;99.90;;;;;;6230177;23;20169;-94
2021/09/15 02:18:52;;;;;;;2.10;1.40;;;18.10;99.90;;;;;;6233751;23;20295;-94
2021/09/15 02:21:28;;;;;;;2.27;1.50;;;18.00;99.90;;;;;;6234408;23;20172;-94
2021/09/15 02:24:02;;;;;;;2.63;1.63;;;18.00;99.90;;;;;;6229128;23;20176;-93
2021/09/15 02:26:34;;;;;;;3.47;1.70;;;18.00;99.90;;;;;;6229033;23;20188;-93
2021/09/15 02:29:06;;;;;;;2.90;1.50;;;18.00;99.90;;;;;;6211259;23;20171;-94
2021/09/15 02:31:39;;;;;;;2.87;1.80;;;17.90;99.90;;;;;;6243731;23;20195;-94
2021/09/15 02:34:11;;;;;;;2.83;1.60;;;17.90;99.90;;;;;;6244033;23;20172;-91
2021/09/15 02:36:46;;;;;;;5.70;1.83;;;17.90;99.90;;;;;;6241127;23;20160;-94
2021/09/15 02:39:21;;;;;;;3.10;1.90;;;17.90;99.90;;;;;;6239372;23;20193;-93
2021/09/15 02:41:53;;;;;;;3.23;1.70;;;17.80;99.90;;;;;;6238939;23;20156;-93
2021/09/15 02:44:25;;;;;;;3.70;1.73;;;17.80;99.90;;;;;;6231761;23;20183;-92
2021/09/15 02:46:57;;;;;;;3.47;1.50;;;17.90;99.90;;;;;;6235206;23;20187;-92
2021/09/15 02:49:29;;;;;;;6.13;1.63;;;17.90;99.90;;;;;;6235769;23;20191;-92
2021/09/15 02:52:00;;;;;;;3.53;1.60;;;18.00;99.90;;;;;;6210069;23;20217;-95
2021/09/15 02:54:33;;;;;;;2.23;0.90;;;18.00;99.90;;;;;;6234712;23;20173;-92
2021/09/15 02:57:05;;;;;;;1.50;0.73;;;18.10;99.90;;;;;;6235035;23;20183;-92
2021/09/15 02:59:37;;;;;;;2.23;1.20;;;18.20;99.90;;;;;;6239863;23;20197;-92
2021/09/15 03:11:09;;;;;;;1.60;0.90;;;18.30;99.90;;;;;;6237456;23;20180;-95
2021/09/15 03:13:40;;;;;;;3.67;1.20;;;18.30;99.90;;;;;;6239871;23;20223;-93
2021/09/15 03:16:12;;;;;;;1.00;0.87;;;18.30;99.90;;;;;;6240854;23;20160;-93
2021/09/15 03:18:44;;;;;;;1.17;0.90;;;18.30;99.90;;;;;;6239388;23;20212;-93
2021/09/15 03:21:16;;;;;;;3.63;1.07;;;18.20;99.90;;;;;;6211032;23;20191;-94
2021/09/15 03:23:49;;;;;;;1.60;0.80;;;18.20;99.90;;;;;;6237176;23;20176;-93
2021/09/15 03:26:26;;;;;;;1.20;0.80;;;18.20;99.90;;;;;;6234848;23;20177;-92
2021/09/15 03:28:58;;;;;;;1.53;0.90;;;18.10;99.90;;;;;;6210018;23;20177;-94
2021/09/15 03:31:30;;;;;;;0.80;0.70;;;18.10;99.90;;;;;;6234541;23;20207;-94
2021/09/15 03:34:01;;;;;;;4.63;1.20;;;18.00;99.90;;;;;;6210076;23;20168;-94
2021/09/15 03:36:46;;;;;;;;;;;;;;;;;;;;;
2021/09/15 03:39:15;;;;;;;0.87;0.70;;;17.90;99.90;;;;;;6234436;23;20216;-93
2021/09/15 03:47:09;;;;;;;1.80;0.70;;;17.70;99.90;;;;;;6231018;23;20242;-92
2021/09/15 03:49:41;;;;;;;1.70;0.73;;;17.60;99.90;;;;;;6231599;23;20357;-86
2021/09/15 03:52:15;;;;;;;2.43;0.80;;;17.60;99.90;;;;;;6213198;23;20636;-93
2021/09/15 03:54:46;;;;;;;2.67;0.70;;;17.60;99.90;;;;;;6235395;23;20180;-93
2021/09/15 03:57:17;;;;;;;2.87;1.10;;;17.50;99.90;;;;;;6238286;23;20192;-94
2021/09/15 03:59:49;;;;;;;0.93;0.70;;;17.50;99.90;;;;;;6235552;23;20294;-93
2021/09/15 04:02:25;;;;;;;1.00;0.87;;;17.50;99.90;;;;;;6238488;23;20165;-94
2021/09/15 04:04:58;;;;;;;1.60;0.80;;;17.60;99.90;;;;;;6240696;23;20195;-93
2021/09/15 04:07:31;;;;;;;1.57;0.83;;;17.60;99.90;;;;;;6237302;23;20164;-93
2021/09/15 04:10:02;;;;;;;1.60;0.97;;;17.60;99.90;;;;;;6231801;23;20211;-93
2021/09/15 04:12:34;;;;;;;1.97;0.80;;;17.60;99.90;;;;;;6239255;23;20188;-94
2021/09/15 04:15:06;;;;;;;3.77;1.00;;;17.50;99.90;;;;;;6242253;23;20195;-94
2021/09/15 04:17:39;;;;;;;1.77;0.90;;;17.50;99.90;;;;;;6242090;23;20162;-95
2021/09/15 04:20:12;;;;;;;1.70;0.90;;;17.60;99.90;;;;;;6242005;23;20192;-94
2021/09/15 04:22:44;;;;;;;5.87;1.10;;;17.50;99.90;;;;;;6243122;23;20167;-93
2021/09/15 04:33:41;;;;;;;3.17;0.90;;;17.50;99.90;;;;;;6236928;23;20168;-95
2021/09/15 04:36:16;;;;;;;2.60;1.03;;;17.50;99.90;;;;;;6220206;23;20694;-95
2021/09/15 04:38:48;;;;;;;2.67;1.10;;;17.50;99.90;;;;;;6185344;23;20169;-95
2021/09/15 04:41:23;;;;;;;2.33;1.00;;;17.40;99.90;;;;;;6230248;23;20180;-95
2021/09/15 04:43:55;;;;;;;1.47;1.03;;;17.40;99.90;;;;;;6234168;23;20533;-95
2021/09/15 04:46:29;;;;;;;2.63;1.00;;;17.40;99.90;;;;;;6206460;23;20168;-95
2021/09/15 04:51:43;;;;;;;1.73;0.93;;;17.40;99.90;;;;;;6238927;23;20226;-92
2021/09/15 04:54:15;;;;;;;2.63;1.10;;;17.30;99.90;;;;;;6241236;23;20156;-95
2021/09/15 04:56:55;;;;;;;1.10;1.00;;;17.30;99.90;;;;;;6216726;23;20180;-94
2021/09/15 05:04:44;;;;;;;2.00;1.17;;;17.20;99.90;;;;;;6235085;22;20558;-94
2021/09/15 05:07:19;;;;;;;3.50;1.00;;;17.20;99.90;;;;;;6234010;23;20180;-94
2021/09/15 05:09:51;;;;;;;1.80;1.07;;;17.20;99.90;;;;;;6235096;23;20624;-94
2021/09/15 05:12:22;;;;;;;1.27;1.00;;;17.10;99.90;;;;;;6239626;23;20156;-92
2021/09/15 05:14:54;;;;;;;1.77;1.20;;;17.10;99.90;;;;;;6231370;23;20207;-93
2021/09/15 05:17:26;;;;;;;3.27;1.30;;;17.10;99.90;;;;;;6231798;23;20176;-93
2021/09/15 05:19:58;;;;;;;1.93;1.10;;;17.10;99.90;;;;;;6229268;23;20204;-93
2021/09/15 05:22:32;;;;;;;1.60;1.10;;;17.10;99.90;;;;;;6233581;23;20168;-93
2021/09/15 05:25:05;;;;;;;2.33;1.10;;;17.00;99.90;;;;;;6224601;23;20192;-93
2021/09/15 05:27:36;;;;;;;2.27;1.20;;;17.00;99.90;;;;;;6233571;23;20187;-94
2021/09/15 05:30:08;;;;;;;2.60;1.20;;;17.00;99.90;;;;;;6234152;23;20177;-93
2021/09/15 05:32:39;;;;;;;1.73;1.20;;;17.00;99.90;;;;;;6240163;23;20165;-93
2021/09/15 05:35:12;;;;;;;3.10;1.30;;;16.90;99.90;;;;;;6243161;23;20168;-94
2021/09/15 05:37:46;;;;;;;1.20;1.10;;;16.90;99.90;;;;;;6241891;23;20164;-94
2021/09/15 05:40:17;;;;;;;3.93;1.70;;;16.90;99.90;;;;;;6243827;23;20207;-94
2021/09/15 05:42:48;;;;;;;2.20;1.13;;;16.80;99.90;;;;;;6241995;23;20179;-93
2021/09/15 05:45:20;;;;;;;2.23;1.27;;;16.90;99.90;;;;;;6235990;23;20176;-94
2021/09/15 05:47:52;;;;;;;1.63;1.30;;;16.90;99.90;;;;;;6235481;23;20184;-93
2021/09/15 05:50:25;;;;;;;1.50;1.27;;;16.90;99.90;;;;;;6230680;23;20181;-94
2021/09/15 05:52:59;;;;;;;1.90;1.47;;;16.90;99.90;;;;;;6235201;23;20172;-94
2021/09/15 05:55:30;;;;;;;3.33;1.60;;;16.70;99.90;;;;;;6230844;23;20184;-94
2021/09/15 05:58:01;;;;;;;4.33;1.57;;;16.70;99.90;;;;;;6232101;23;20176;-95
2021/09/15 06:00:32;;;;;;;1.30;1.10;;;16.70;99.90;;;;;;6233599;23;20203;-94
2021/09/15 06:03:03;;;;;;;2.23;1.07;;;16.70;99.90;;;;;;6234244;23;20183;-93
2021/09/15 06:05:37;;;;;;;1.77;1.00;;;16.80;99.90;;;;;;6235015;23;20169;-94
2021/09/15 06:08:11;;;;;;;2.60;0.90;;;16.70;99.90;;;;;;6235897;23;20167;-94
2021/09/15 06:10:42;;;;;;;1.33;0.80;;;16.50;99.90;;;;;;6235402;23;20180;-94
2021/09/15 06:13:14;;;;;;;1.00;0.90;;;16.60;99.90;;;;;;6233927;23;20203;-94
2021/09/15 06:15:46;;;;;;;1.70;1.10;;;16.60;99.90;;;;;;6233697;23;20245;-94
2021/09/15 06:18:18;;;;;;;1.13;1.00;;;16.60;99.90;;;;;;6231312;23;20169;-94
2021/09/15 06:20:49;;;;;;;1.00;0.90;;;16.70;99.90;;;;;;6240068;23;20185;-94
2021/09/15 06:23:23;;;;;;;1.03;0.93;;;16.70;99.90;;;;;;6232453;23;20183;-94
2021/09/15 06:25:55;;;;;;;1.90;1.07;;;16.60;99.90;;;;;;6229468;23;20212;-95
2021/09/15 06:28:26;;;;;;;1.97;1.00;;;16.70;99.90;;;;;;6232138;23;20180;-95
2021/09/15 06:31:01;;;;;;;1.27;0.97;;;16.70;99.90;;;;;;6232665;23;20183;-95
2021/09/15 06:33:33;;;;;;;1.57;1.10;;;16.60;99.90;;;;;;6211554;23;20176;-95
2021/09/15 06:36:07;;;;;;;4.10;1.37;;;16.60;99.90;;;;;;6239273;23;20212;-94
2021/09/15 06:38:43;;;;;;;2.07;1.10;;;16.50;99.90;;;;;;6240753;23;20152;-95
2021/09/15 06:41:15;;;;;;;2.20;1.10;;;16.50;99.90;;;;;;6239001;23;20218;-95
2021/09/15 06:43:47;;;;;;;1.37;1.10;;;16.40;99.90;;;;;;6210476;23;20184;-95
2021/09/15 06:46:19;;;;;;;1.13;1.03;;;16.30;99.90;;;;;;6235464;23;20176;-96
2021/09/15 06:48:49;;;;;;;1.50;1.17;;;16.30;99.90;;;;;;6235350;23;20195;-95
2021/09/15 06:51:21;;;;;;;1.60;1.20;;;16.30;99.90;;;;;;6234834;23;20184;-96
2021/09/15 06:53:54;;;;;;;1.20;1.10;;;16.40;99.90;;;;;;6233841;23;20176;-95
2021/09/15 06:56:26;;;;;;;3.10;1.13;;;16.40;99.90;;;;;;6234954;23;20179;-95
2021/09/15 06:58:58;;;;;;;2.13;1.37;;;16.40;99.90;;;;;;6209555;23;20179;-96
2021/09/15 07:01:29;;;;;;;3.30;1.00;;;16.30;99.90;;;;;;6233838;23;20196;-95
2021/09/15 07:04:01;;;;;;;2.30;1.30;;;16.30;99.90;;;;;;6178571;23;20171;-93
2021/09/15 07:06:33;;;;;;;2.43;1.43;;;16.40;99.90;;;;;;6243976;23;20220;-93
2021/09/15 07:09:07;;;;;;;2.20;1.37;;;16.30;99.90;;;;;;6243589;23;20212;-93
2021/09/15 07:11:38;;;;;;;2.47;1.27;;;16.30;99.90;;;;;;6241642;23;20154;-93
2021/09/15 07:14:10;;;;;;;1.63;1.10;;;16.30;99.90;;;;;;6241331;23;20179;-93
2021/09/15 07:16:41;;;;;;;2.03;1.37;;;16.20;99.90;;;;;;6240527;23;20173;-93
2021/09/15 07:19:13;;;;;;;1.50;1.40;;;16.20;99.90;;;;;;6235376;23;20173;-94
2021/09/15 07:21:45;;;;;;;2.47;1.60;;;16.20;99.90;;;;;;6231497;23;20215;-94
2021/09/15 07:24:17;;;;;;;1.60;1.50;;;16.20;99.90;;;;;;6206825;23;20187;-96
2021/09/15 07:26:49;;;;;;;2.07;1.43;;;16.10;99.90;;;;;;6232505;23;20188;-95
2021/09/15 07:29:20;;;;;;;1.40;1.30;;;16.10;99.90;;;;;;6232310;23;20188;-95
2021/09/15 07:31:52;;;;;;;2.57;1.50;;;15.90;99.90;;;;;;6233053;23;20179;-95
2021/09/15 07:34:24;;;;;;;3.20;1.30;;;16.00;99.90;;;;;;6231090;23;20168;-95
2021/09/15 07:36:55;;;;;;;2.57;1.07;;;16.00;99.90;;;;;;6233088;23;20238;-96
2021/09/15 07:39:29;;;;;;;1.30;1.20;;;16.00;99.90;;;;;;6233557;23;20177;-96
2021/09/15 07:42:02;;;;;;;1.00;1.00;;;16.00;99.90;;;;;;6232971;23;20672;-96
2021/09/15 07:44:34;;;;;;;1.10;1.00;;;16.00;99.90;;;;;;6232024;23;20187;-95
2021/09/15 07:47:06;;;;;;;1.63;1.17;;;16.10;99.90;;;;;;6232964;23;20180;-96
2021/09/15 07:49:38;;;;;;;1.50;1.10;;;16.00;99.90;;;;;;6235079;23;20169;-95
2021/09/15 07:52:10;;;;;;;2.57;1.20;;;16.10;99.90;;;;;;6207213;23;20176;-95
2021/09/15 07:54:45;;;;;;;1.23;1.10;;;16.10;99.90;;;;;;6226254;23;20173;-95
2021/09/15 07:57:17;;;;;;;2.77;1.20;;;16.10;99.90;;;;;;6221352;23;20184;-95
2021/09/15 07:59:48;;;;;;;1.30;1.10;;;16.10;99.90;;;;;;6198469;23;20183;-96
2021/09/15 08:02:32;;;;;;;1.63;1.07;;;16.10;99.90;;;;;;6195032;23;20215;-95
2021/09/15 08:05:04;;;;;;;2.17;1.10;;;16.10;99.90;;;;;;6218927;23;20226;-95
2021/09/15 08:07:36;;;;;;;1.20;1.07;;;16.10;99.90;;;;;;6225408;23;20199;-96
2021/09/15 08:10:13;;;;;;;1.43;1.00;;;16.10;99.90;;;;;;6231417;23;20203;-94
2021/09/15 08:12:45;;;;;;;2.33;1.20;;;16.10;99.90;;;;;;6231656;23;20180;-93
2021/09/15 08:15:16;;;;;;;2.00;1.20;;;16.20;99.90;;;;;;6229094;23;20220;-94
2021/09/15 08:17:50;;;;;;;3.83;1.53;;;16.20;99.90;;;;;;6231075;23;20176;-93
2021/09/15 08:20:22;;;;;;;1.67;1.40;;;16.20;99.90;;;;;;6224827;23;20168;-94
2021/09/15 08:22:54;;;;;;;1.40;1.30;;;16.20;99.90;;;;;;6226088;23;20203;-94
2021/09/15 08:25:30;;;;;;;1.40;1.30;;;16.20;99.90;;;;;;6228285;23;20195;-93
2021/09/15 08:28:02;;;;;;;1.40;1.20;;;16.20;99.90;;;;;;6232320;23;20172;-93
2021/09/15 08:30:33;;;;;;;1.37;1.27;;;16.20;99.90;;;;;;6231864;23;20168;-95
2021/09/15 08:33:05;;;;;;;1.77;1.40;;;16.20;99.90;;;;;;6222306;23;20164;-94
2021/09/15 08:35:36;;;;;;;2.27;1.30;;;16.20;99.90;;;;;;6230839;23;20172;-94
2021/09/15 08:38:11;;;;;;;3.00;1.40;;;16.10;99.90;;;;;;6219506;23;20172;-94
2021/09/15 08:40:44;;;;;;;1.43;1.30;;;16.00;99.90;;;;;;6192058;23;20276;-93
2021/09/15 08:43:16;;;;;;;1.80;1.47;;;16.00;99.90;;;;;;6218197;23;20902;-94
2021/09/15 08:45:47;;;;;;;2.97;1.50;;;16.00;99.90;;;;;;6218185;23;20172;-93
2021/09/15 08:48:21;;;;;;;4.33;1.40;;;16.00;99.90;;;;;;6219545;23;20215;-94
2021/09/15 08:50:53;;;;;;;1.93;1.53;;;16.00;99.90;;;;;;6218782;23;20195;-94
2021/09/15 08:53:24;;;;;;;1.90;1.67;;;16.00;99.90;;;;;;6236567;23;20180;-92
2021/09/15 08:55:57;;;;;;;2.70;1.43;;;16.10;99.90;;;;;;6239355;23;20199;-92
2021/09/15 08:58:30;;;;;;;2.27;1.30;;;16.10;99.90;;;;;;6225767;23;20172;-92
2021/09/15 09:01:09;;;;;;;1.50;1.30;;;16.00;99.90;;;;;;6228645;23;20191;-93
2021/09/15 09:03:41;;;;;;;2.90;1.50;;;16.00;99.90;;;;;;6219434;23;20522;-92
2021/09/15 09:06:13;;;;;;;1.60;1.20;;;16.00;99.90;;;;;;6218859;23;20215;-93
2021/09/15 09:08:45;;;;;;;3.27;1.50;;;16.00;99.90;;;;;;6218757;23;20176;-93
2021/09/15 09:11:17;;;;;;;1.97;1.53;;;16.00;99.90;;;;;;6217692;23;20175;-93
2021/09/15 09:13:50;;;;;;;2.73;1.90;;;16.00;99.90;;;;;;6220863;23;20168;-93
2021/09/15 09:16:24;;;;;;;2.47;1.90;;;16.00;99.90;;;;;;6218656;23;20212;-93
2021/09/15 09:19:00;;;;;;;4.20;1.90;;;15.90;99.90;;;;;;6220311;23;20634;-93
2021/09/15 09:21:32;;;;;;;3.73;1.87;;;15.80;99.90;;;;;;6224291;23;20194;-94
2021/09/15 09:24:05;;;;;;;4.10;1.83;;;15.80;99.90;;;;;;6241598;23;20164;-94
2021/09/15 09:26:53;;;;;;;3.43;2.10;;;15.60;99.90;;;;;;6240992;23;20230;-91
2021/09/15 09:29:24;;;;;;;5.60;2.37;;;15.50;99.90;;;;;;6225393;23;20492;-93
2021/09/15 09:31:58;;;;;;;4.83;2.50;;;15.40;99.90;;;;;;6222168;23;20199;-92
2021/09/15 09:34:29;;;;;;;4.43;2.90;;;15.40;99.90;;;;;;6219261;23;20173;-94
2021/09/15 09:37:06;;;;;;;3.23;2.40;;;15.40;99.90;;;;;;6220090;23;20666;-93
2021/09/15 09:39:39;;;;;;;5.93;2.70;;;15.30;99.90;;;;;;6226911;23;20168;-94
2021/09/15 09:42:35;;;;;;;5.13;2.77;;;15.30;99.90;;;;;;6221402;23;20246;-94
2021/09/15 09:45:21;;;;;;;4.73;3.03;;;15.20;99.90;;;;;;6221003;23;20180;-94
2021/09/15 09:47:58;;;;;;;8.70;3.43;;;15.20;99.90;;;;;;6238417;23;20168;-93
2021/09/15 09:50:33;;;;;;;5.10;3.30;;;15.20;99.90;;;;;;6241511;23;20175;-93
2021/09/15 09:53:05;;;;;;;4.17;3.77;;;15.10;99.90;;;;;;6241171;23;20183;-94
2021/09/15 09:55:40;;;;;;;5.60;3.50;;;15.10;99.90;;;;;;6241651;23;20156;-94
2021/09/15 09:58:14;;;;;;;4.53;3.47;;;15.10;99.90;;;;;;6242166;23;20168;-94
2021/09/15 10:00:46;;;;;;;4.37;3.97;;;15.10;99.90;;;;;;6241479;23;20164;-94
2021/09/15 10:03:18;;;;;;;4.47;3.30;;;15.10;99.90;;;;;;6220812;23;20235;-93
2021/09/15 10:05:50;;;;;;;4.40;3.50;;;15.00;99.90;;;;;;6220248;23;20204;-93
2021/09/15 10:08:22;;;;;;;5.13;3.30;;;15.10;99.90;;;;;;6219461;23;20188;-93
2021/09/15 10:10:53;;;;;;;3.63;3.33;;;15.10;99.90;;;;;;6219128;23;20192;-93
2021/09/15 10:13:26;;;;;;;4.63;3.30;;;15.10;99.90;;;;;;6218913;23;20179;-93
2021/09/15 10:16:02;;;;;;;4.17;3.20;;;15.10;99.90;;;;;;6219916;23;20165;-93
2021/09/15 10:18:34;;;;;;;5.87;3.03;;;15.10;99.90;;;;;;6220064;23;20619;-93
2021/09/15 10:21:07;;;;;;;5.63;3.73;;;15.10;99.90;;;;;;6219069;23;20209;-93
2021/09/15 10:23:40;;;;;;;6.20;5.33;;;15.10;99.90;;;;;;6219031;23;20239;-93
2021/09/15 10:26:28;;;;;;;5.57;4.80;;;15.00;99.90;;;;;;6218736;23;20227;-93
2021/09/15 10:29:24;;;;;;;8.13;4.60;;;14.90;99.90;;;;;;6219200;23;20200;-93
2021/09/15 10:31:58;;;;;;;5.53;4.90;;;14.90;99.90;;;;;;6218408;23;20165;-91
2021/09/15 10:35:02;;;;;;;6.60;4.83;;;14.80;99.90;;;;;;6219308;23;20165;-92
2021/09/15 10:37:56;;;;;;;4.87;4.03;;;14.80;99.90;;;;;;6070144;23;20206;-92
2021/09/15 10:40:32;;;;;;;5.00;4.43;;;14.80;99.90;;;;;;6070346;23;20187;-93
2021/09/15 10:43:03;;;;;;;7.17;4.70;;;14.80;99.90;;;;;;6179455;23;20689;-95
2021/09/15 10:45:36;;;;;;;6.10;5.10;;;14.70;99.90;;;;;;6222057;23;20204;-93
2021/09/15 10:48:15;;;;;;;6.80;5.03;;;14.70;99.90;;;;;;6221523;23;20172;-93
2021/09/15 10:50:55;;;;;;;4.83;4.17;;;14.70;99.90;;;;;;6218668;23;20173;-93
2021/09/15 10:53:33;;;;;;;5.67;4.03;;;14.70;99.90;;;;;;6219026;23;20505;-93
2021/09/15 10:56:04;;;;;;;5.83;3.87;;;14.70;99.90;;;;;;6219522;23;20697;-93
2021/09/15 10:58:45;;;;;;;4.73;4.30;;;14.70;99.90;;;;;;6222118;23;20188;-94
2021/09/15 11:01:39;;;;;;;5.10;3.80;;;14.70;99.90;;;;;;6221892;23;20168;-93
2021/09/15 11:04:34;;;;;;;4.03;3.60;;;14.60;99.90;;;;;;6219851;23;20287;-93
2021/09/15 11:07:05;;;;;;;5.23;3.63;;;14.70;99.90;;;;;;6218644;23;20549;-93
2021/09/15 11:09:41;;;;;;;3.37;2.83;;;14.70;99.90;;;;;;6222463;23;20183;-93
2021/09/15 11:12:32;;;;;;;5.17;2.80;;;14.70;99.90;;;;;;6217727;23;20195;-93
2021/09/15 11:15:05;;;;;;;5.87;3.07;;;14.60;99.90;;;;;;6219354;23;20264;-93
2021/09/15 11:17:39;;;;;;;4.87;3.20;;;14.60;99.90;;;;;;6220257;23;20239;-93
2021/09/15 11:20:11;;;;;;;3.30;2.70;;;14.60;99.90;;;;;;6221644;23;20290;-92
2021/09/15 11:22:43;;;;;;;4.13;2.57;;;14.60;99.90;;;;;;6218167;23;20228;-92
2021/09/15 11:25:17;;;;;;;2.67;2.37;;;14.60;99.90;;;;;;6218664;23;20188;-92
2021/09/15 11:28:07;;;;;;;2.50;2.30;;;14.60;99.90;;;;;;6219148;23;20172;-92
2021/09/15 11:30:40;;;;;;;2.43;1.80;;;14.60;99.90;;;;;;6218661;23;20204;-93
2021/09/15 11:33:14;;;;;;;4.60;2.20;;;14.50;99.90;;;;;;6220857;23;20176;-92
2021/09/15 11:35:45;;;;;;;1.80;1.70;;;14.50;99.90;;;;;;6240571;23;20180;-90
2021/09/15 11:38:16;;;;;;;1.90;1.80;;;14.50;99.90;;;;;;6242896;23;20164;-93
2021/09/15 11:40:47;;;;;;;4.87;2.10;;;14.60;99.90;;;;;;6241434;23;20157;-95
2021/09/15 11:43:22;;;;;;;2.50;1.83;;;14.60;99.90;;;;;;6217231;23;20188;-94
2021/09/15 11:45:54;;;;;;;1.70;1.60;;;14.60;99.90;;;;;;6240771;23;20176;-94
2021/09/15 11:48:31;;;;;;;2.00;1.50;;;14.50;99.90;;;;;;6230574;23;20177;-93
2021/09/15 11:51:18;;;;;;;3.07;1.30;;;14.60;99.90;;;;;;6219802;23;20298;-94
2021/09/15 11:53:53;;;;;;;1.30;1.20;;;14.50;99.90;;;;;;6220397;23;20234;-94
2021/09/15 11:56:30;;;;;;;2.27;1.60;;;14.50;99.90;;;;;;6220589;23;20179;-94
2021/09/15 11:59:02;;;;;;;1.77;1.23;;;14.50;99.90;;;;;;6220129;23;20177;-94
2021/09/15 12:01:40;;;;;;;1.63;1.30;;;14.50;99.90;;;;;;6219314;23;20180;-94
2021/09/15 12:04:20;;;;;;;1.33;1.20;;;14.50;99.90;;;;;;6219195;23;20204;-94
2021/09/15 12:06:51;;;;;;;1.97;1.30;;;14.50;99.90;;;;;;6218858;23;20180;-95
2021/09/15 12:09:26;;;;;;;1.73;1.20;;;14.40;99.90;;;;;;6219545;23;20164;-93
2021/09/15 12:11:58;;;;;;;2.97;1.10;;;14.50;99.90;;;;;;6191896;23;20339;-93
2021/09/15 12:14:34;;;;;;;1.27;1.00;;;14.40;99.90;;;;;;6218110;23;20210;-93
2021/09/15 12:17:06;;;;;;;1.73;1.37;;;14.40;99.90;;;;;;6219084;23;20180;-93
2021/09/15 12:19:49;;;;;;;1.03;0.93;;;14.40;99.90;;;;;;6192354;23;20199;-93
2021/09/15 12:22:26;;;;;;;0.80;0.73;;;14.40;99.90;;;;;;6217800;23;20173;-93
2021/09/15 12:25:01;;;;;;;1.17;1.00;;;14.40;99.90;;;;;;6218340;23;20203;-93
2021/09/15 12:27:32;;;;;;;1.53;1.20;;;14.50;99.90;;;;;;6219374;23;20199;-93
2021/09/15 12:30:07;;;;;;;1.27;0.80;;;14.50;99.90;;;;;;6236468;23;20160;-92
2021/09/15 12:32:40;;;;;;;1.17;0.93;;;14.40;99.90;;;;;;6229893;23;20171;-93
2021/09/15 12:35:24;;;;;;;1.23;0.87;;;14.40;99.90;;;;;;6222812;23;20165;-93
2021/09/15 12:38:02;;;;;;;3.27;1.07;;;14.40;99.90;;;;;;6221456;23;20568;-94
2021/09/15 12:40:36;;;;;;;1.53;0.90;;;14.40;99.90;;;;;;6234211;23;20159;-94
2021/09/15 12:43:10;;;;;;;4.07;1.30;;;14.40;99.90;;;;;;6241033;23;20157;-94
2021/09/15 12:45:41;;;;;;;2.23;1.23;;;14.40;99.90;;;;;;6241378;23;20172;-94
2021/09/15 12:48:18;;;;;;;5.47;1.30;;;14.30;99.90;;;;;;6240822;23;20184;-94
2021/09/15 12:50:52;;;;;;;7.07;1.63;;;14.20;99.90;;;;;;6238991;23;20179;-93
2021/09/15 12:53:24;;;;;;;6.83;1.87;;;14.10;99.90;;;;;;6237271;23;20181;-94
2021/09/15 12:55:56;;;;;;;6.47;2.10;;;14.00;99.90;;;;;;6224898;23;20168;-93
2021/09/15 12:58:45;;;;;;;9.90;2.70;;;14.00;99.90;;;;;;6225486;23;20192;-94
2021/09/15 13:01:21;;;;;;;6.50;1.53;;;13.90;99.90;;;;;;6220259;23;20176;-93
2021/09/15 13:03:55;;;;;;;5.87;1.60;;;13.90;99.90;;;;;;6222168;23;20200;-92
2021/09/15 13:06:28;;;;;;;8.50;2.20;;;13.90;99.90;;;;;;6222422;23;20203;-94
2021/09/15 13:08:59;;;;;;;7.17;2.17;;;13.90;99.90;;;;;;6221669;23;20208;-93
2021/09/15 13:11:30;;;;;;;7.03;1.87;;;13.90;99.90;;;;;;6218935;23;20196;-93
2021/09/15 13:14:02;;;;;;;5.80;2.30;;;13.80;99.90;;;;;;6221234;23;20263;-92
2021/09/15 13:16:33;;;;;;;7.73;2.03;;;13.70;99.90;;;;;;6224554;23;20243;-93
2021/09/15 13:19:06;;;;;;;10.37;1.93;;;13.70;99.90;;;;;;6226198;23;20176;-92
2021/09/15 13:21:39;;;;;;;8.83;2.50;;;13.70;99.90;;;;;;6219322;23;20259;-93
2021/09/15 13:24:10;;;;;;;8.87;2.30;;;13.70;99.90;;;;;;6218880;23;20200;-92
2021/09/15 13:26:41;;;;;;;9.67;2.23;;;13.70;99.90;;;;;;6218836;23;20188;-93
2021/09/15 13:29:14;;;;;;;10.97;2.50;;;13.60;99.90;;;;;;6219011;23;20631;-94
2021/09/15 13:31:46;;;;;;;6.63;2.00;;;13.60;99.90;;;;;;6220215;23;20176;-93
2021/09/15 13:34:17;;;;;;;12.17;3.10;;;13.60;99.90;;;;;;6221357;23;20176;-93
2021/09/15 13:36:50;;;;;;;8.10;2.10;;;13.50;99.90;;;;;;6221512;23;20616;-93
2021/09/15 13:39:21;;;;;;;9.80;2.30;;;13.50;99.90;;;;;;6195602;23;20187;-92
2021/09/15 13:41:52;;;;;;;9.63;2.63;;;13.50;99.90;;;;;;6222853;23;20180;-93
2021/09/15 13:44:23;;;;;;;9.67;2.37;;;13.40;99.90;;;;;;6222698;23;20235;-93
2021/09/15 13:46:55;;;;;;;12.03;2.30;;;13.40;99.90;;;;;;6222035;23;20176;-93
2021/09/15 13:49:26;;;;;;;7.00;2.13;;;13.40;99.90;;;;;;6223032;23;20176;-93
2021/09/15 13:51:59;;;;;;;9.83;2.73;;;13.40;99.90;;;;;;6221817;23;20543;-93
2021/09/15 13:54:42;;;;;;;7.00;2.67;;;13.40;99.90;;;;;;6221181;23;20203;-93
2021/09/15 13:57:14;;;;;;;9.77;2.23;;;13.40;99.90;;;;;;6223751;23;20192;-93
2021/09/15 13:59:46;;;;;;;9.00;2.30;;;13.30;99.90;;;;;;6233076;23;20188;-94
2021/09/15 14:02:17;;;;;;;8.60;2.63;;;13.40;99.90;;;;;;6243122;23;20176;-93